createdAt,value
2023-04-03T00:00:42.285Z,98761.00
2023-04-03T00:03:10.083Z,98759.00
2023-04-03T00:05:39.275Z,98759.00
2023-04-03T00:08:08.990Z,98745.00
2023-04-03T00:10:37.366Z,98749.00
2023-04-03T00:13:05.515Z,98752.00
2023-04-03T00:15:33.725Z,98744.00
2023-04-03T00:18:01.590Z,98747.00
2023-04-03T00:20:29.463Z,98740.00
2023-04-03T00:22:58.626Z,98737.00
2023-04-03T00:25:26.328Z,98741.00
2023-04-03T00:27:54.178Z,98747.00
2023-04-03T00:30:23.674Z,98747.00
2023-04-03T00:32:52.391Z,98745.00
2023-04-03T00:35:21.596Z,98743.00
2023-04-03T00:37:49.648Z,98744.00
2023-04-03T00:40:19.445Z,98749.00
2023-04-03T00:42:49.550Z,98746.00
2023-04-03T00:45:33.939Z,98756.00
2023-04-03T00:48:03.542Z,98750.00
2023-04-03T00:50:32.353Z,98751.00
2023-04-03T00:53:00.550Z,98746.00
2023-04-03T00:55:29.725Z,98757.00
2023-04-03T00:57:58.806Z,98755.00
2023-04-03T01:00:27.067Z,98754.00
2023-04-03T01:02:54.988Z,98751.00
2023-04-03T01:05:23.580Z,98748.00
2023-04-03T01:07:53.320Z,98755.00
2023-04-03T01:10:22.416Z,98750.00
2023-04-03T01:12:52.616Z,98743.00
2023-04-03T01:15:23.850Z,98748.00
2023-04-03T01:17:53.377Z,98746.00
2023-04-03T01:20:44.397Z,98752.00
2023-04-03T01:23:24.617Z,98748.00
2023-04-03T01:25:54.284Z,98751.00
2023-04-03T01:28:25.762Z,98747.00
2023-04-03T01:31:02.470Z,98747.00
2023-04-03T01:33:31.770Z,98751.00
2023-04-03T01:35:59.878Z,98757.00
2023-04-03T01:38:28.045Z,98754.00
2023-04-03T01:40:55.768Z,98753.00
2023-04-03T01:43:23.609Z,98752.00
2023-04-03T01:45:51.363Z,98756.00
2023-04-03T01:48:19.124Z,98750.00
2023-04-03T01:50:48.288Z,98744.00
2023-04-03T01:53:16.492Z,98753.00
2023-04-03T01:55:44.149Z,98754.00
2023-04-03T01:58:11.842Z,98743.00
2023-04-03T02:00:39.650Z,98745.00
2023-04-03T02:03:07.904Z,98743.00
2023-04-03T02:05:35.774Z,98750.00
2023-04-03T02:08:05.054Z,98743.00
2023-04-03T02:10:32.686Z,98755.00
2023-04-03T02:13:00.343Z,98748.00
2023-04-03T02:15:28.012Z,98752.00
2023-04-03T02:17:55.732Z,98756.00
2023-04-03T02:20:23.583Z,98755.00
2023-04-03T02:22:51.270Z,98759.00
2023-04-03T02:25:21.449Z,98755.00
2023-04-03T02:27:49.146Z,98754.00
2023-04-03T02:30:17.119Z,98752.00
2023-04-03T02:32:45.394Z,98754.00
2023-04-03T02:35:13.961Z,98757.00
2023-04-03T02:37:42.085Z,98753.00
2023-04-03T02:40:12.438Z,98751.00
2023-04-03T02:42:41.664Z,98758.00
2023-04-03T02:45:10.001Z,98756.00
2023-04-03T02:47:37.742Z,98754.00
2023-04-03T02:50:06.360Z,98757.00
2023-04-03T02:52:34.056Z,98758.00
2023-04-03T02:55:01.795Z,98757.00
2023-04-03T02:57:29.716Z,98760.00
2023-04-03T02:59:58.820Z,98755.00
2023-04-03T03:02:26.679Z,98757.00
2023-04-03T03:04:54.565Z,98762.00
2023-04-03T03:07:22.342Z,98755.00
2023-04-03T03:09:50.030Z,98758.00
2023-04-03T03:12:22.486Z,98761.00
2023-04-03T03:14:50.436Z,98755.00
2023-04-03T03:17:19.823Z,98755.00
2023-04-03T03:19:47.725Z,98756.00
2023-04-03T03:22:15.388Z,98757.00
2023-04-03T03:24:43.077Z,98754.00
2023-04-03T03:27:11.310Z,98757.00
2023-04-03T03:29:39.001Z,98755.00
2023-04-03T03:32:06.890Z,98743.00
2023-04-03T03:34:35.960Z,98752.00
2023-04-03T03:37:03.677Z,98748.00
2023-04-03T03:39:31.384Z,98746.00
2023-04-03T03:41:59.163Z,98744.00
2023-04-03T03:44:26.947Z,98754.00
2023-04-03T03:46:54.690Z,98754.00
2023-04-03T03:49:22.606Z,98753.00
2023-04-03T03:51:52.722Z,98753.00
2023-04-03T03:54:20.381Z,98757.00
2023-04-03T03:56:48.092Z,98754.00
2023-04-03T03:59:16.190Z,98753.00
2023-04-03T04:01:43.971Z,98760.00
2023-04-03T04:04:11.726Z,98757.00
2023-04-03T04:06:39.413Z,98757.00
2023-04-03T04:09:08.440Z,98757.00
2023-04-03T04:11:36.154Z,98764.00
2023-04-03T04:14:03.828Z,98759.00
2023-04-03T04:16:31.621Z,98754.00
2023-04-03T04:18:59.432Z,98765.00
2023-04-03T04:21:27.629Z,98766.00
2023-04-03T04:23:55.330Z,98759.00
2023-04-03T04:26:24.379Z,98759.00
2023-04-03T04:28:52.036Z,98760.00
2023-04-03T04:31:19.784Z,98760.00
2023-04-03T04:33:47.561Z,98759.00
2023-04-03T04:36:15.912Z,98761.00
2023-04-03T04:38:43.888Z,98749.00
2023-04-03T04:41:11.573Z,98764.00
2023-04-03T04:43:40.601Z,98767.00
2023-04-03T04:46:09.839Z,98764.00
2023-04-03T04:48:37.978Z,98765.00
2023-04-03T04:51:06.270Z,98772.00
2023-04-03T04:53:34.160Z,98767.00
2023-04-03T04:56:01.905Z,98775.00
2023-04-03T04:58:29.664Z,98787.00
2023-04-03T05:01:02.196Z,98776.00
2023-04-03T05:03:30.367Z,98778.00
2023-04-03T05:05:58.276Z,98777.00
2023-04-03T05:08:26.091Z,98783.00
2023-04-03T05:10:55.636Z,98781.00
2023-04-03T05:13:24.117Z,98780.00
2023-04-03T05:15:51.915Z,98784.00
2023-04-03T05:18:21.094Z,98780.00
2023-04-03T05:20:50.445Z,98783.00
2023-04-03T05:23:18.388Z,98777.00
2023-04-03T05:25:47.883Z,98795.00
2023-04-03T05:28:15.776Z,98796.00
2023-04-03T05:30:43.592Z,98783.00
2023-04-03T05:33:11.758Z,98796.00
2023-04-03T05:35:42.496Z,98797.00
2023-04-03T05:38:10.600Z,98800.00
2023-04-03T05:40:38.488Z,98809.00
2023-04-03T05:43:06.330Z,98796.00
2023-04-03T05:45:34.297Z,98807.00
2023-04-03T05:48:02.032Z,98802.00
2023-04-03T05:50:29.813Z,98799.00
2023-04-03T05:52:59.990Z,98808.00
2023-04-03T05:55:27.808Z,98812.00
2023-04-03T05:57:55.601Z,98805.00
2023-04-03T06:00:23.619Z,98812.00
2023-04-03T06:02:51.467Z,98810.00
2023-04-03T06:05:19.802Z,98818.00
2023-04-03T06:07:47.811Z,98821.00
2023-04-03T06:10:16.861Z,98808.00
2023-04-03T06:12:44.612Z,98822.00
2023-04-03T06:15:12.766Z,98817.00
2023-04-03T06:17:40.456Z,98814.00
2023-04-03T06:20:08.965Z,98829.00
2023-04-03T06:22:36.966Z,98817.00
2023-04-03T06:25:05.862Z,98817.00
2023-04-03T06:27:34.981Z,98829.00
2023-04-03T06:30:02.675Z,98822.00
2023-04-03T06:32:30.490Z,98827.00
2023-04-03T06:34:58.418Z,98829.00
2023-04-03T06:37:29.076Z,98829.00
2023-04-03T06:39:57.151Z,98834.00
2023-04-03T06:42:25.037Z,98832.00
2023-04-03T06:47:21.910Z,98841.00
2023-04-03T06:49:49.629Z,98835.00
2023-04-03T06:52:17.412Z,98837.00
2023-04-03T06:54:45.125Z,98840.00
2023-04-03T06:57:12.827Z,98833.00
2023-04-03T06:59:41.220Z,98849.00
2023-04-03T07:02:09.017Z,98855.00
2023-04-03T07:04:38.068Z,98845.00
2023-04-03T07:07:05.848Z,98853.00
2023-04-03T07:09:33.841Z,98858.00
2023-04-03T07:12:01.596Z,98860.00
2023-04-03T07:14:29.316Z,98866.00
2023-04-03T07:16:57.051Z,98857.00
2023-04-03T07:19:25.463Z,98868.00
2023-04-03T07:21:54.542Z,98867.00
2023-04-03T07:24:22.278Z,98872.00
2023-04-03T07:26:51.678Z,98879.00
2023-04-03T07:29:19.395Z,98877.00
2023-04-03T07:31:47.181Z,98885.00
2023-04-03T07:34:14.928Z,98886.00
2023-04-03T07:36:42.809Z,98876.00
2023-04-03T07:39:12.142Z,98883.00
2023-04-03T07:41:40.239Z,98877.00
2023-04-03T07:44:10.887Z,98884.00
2023-04-03T07:46:38.969Z,98885.00
2023-04-03T07:49:06.656Z,98883.00
2023-04-03T07:51:34.360Z,98887.00
2023-04-03T07:54:02.056Z,98894.00
2023-04-03T07:56:31.309Z,98888.00
2023-04-03T07:58:58.973Z,98894.00
2023-04-03T08:01:29.692Z,98889.00
2023-04-03T08:03:57.613Z,98888.00
2023-04-03T08:06:37.500Z,98887.00
2023-04-03T08:09:13.754Z,98889.00
2023-04-03T08:11:43.236Z,98890.00
2023-04-03T08:14:16.415Z,98896.00
2023-04-03T08:16:45.164Z,98891.00
2023-04-03T08:19:22.486Z,98907.00
2023-04-03T08:21:54.331Z,98897.00
2023-04-03T08:24:22.116Z,98903.00
2023-04-03T08:26:51.269Z,98899.00
2023-04-03T08:29:22.975Z,98902.00
2023-04-03T08:31:51.814Z,98900.00
2023-04-03T08:34:20.360Z,98893.00
2023-04-03T08:36:48.197Z,98896.00
2023-04-03T08:39:16.074Z,98902.00
2023-04-03T08:41:47.420Z,98898.00
2023-04-03T08:44:27.444Z,98894.00
2023-04-03T08:47:06.281Z,98902.00
2023-04-03T08:49:36.282Z,98897.00
2023-04-03T08:52:07.063Z,98903.00
2023-04-03T08:54:39.694Z,98898.00
2023-04-03T08:57:08.066Z,98900.00
2023-04-03T08:59:40.293Z,98907.00
2023-04-03T09:02:25.525Z,98909.00
2023-04-03T09:04:53.358Z,98917.00
2023-04-03T09:07:29.138Z,98918.00
2023-04-03T09:10:00.404Z,98914.00
2023-04-03T09:12:34.830Z,98910.00
2023-04-03T09:15:13.158Z,98918.00
2023-04-03T09:17:47.763Z,98918.00
2023-04-03T09:20:24.853Z,98929.00
2023-04-03T09:22:53.883Z,98918.00
2023-04-03T09:25:24.003Z,98911.00
2023-04-03T09:27:52.736Z,98920.00
2023-04-03T09:30:24.522Z,98914.00
2023-04-03T09:32:54.493Z,98916.00
2023-04-03T09:35:32.923Z,98917.00
2023-04-03T09:38:19.296Z,98917.00
2023-04-03T09:40:49.166Z,98922.00
2023-04-03T09:43:29.836Z,98926.00
2023-04-03T09:46:20.650Z,98919.00
2023-04-03T09:49:05.011Z,98918.00
2023-04-03T09:51:35.617Z,98926.00
2023-04-03T09:54:28.308Z,98917.00
2023-04-03T09:56:57.666Z,98932.00
2023-04-03T09:59:25.839Z,98925.00
2023-04-03T10:02:03.817Z,98921.00
2023-04-03T10:04:41.295Z,98915.00
2023-04-03T10:07:31.988Z,98914.00
2023-04-03T10:10:01.009Z,98923.00
2023-04-03T10:12:28.728Z,98919.00
2023-04-03T10:14:58.134Z,98912.00
2023-04-03T10:17:41.916Z,98912.00
2023-04-03T10:20:26.088Z,98911.00
2023-04-03T10:23:06.218Z,98915.00
2023-04-03T10:25:41.942Z,98913.00
2023-04-03T10:28:13.932Z,98906.00
2023-04-03T10:30:49.082Z,98914.00
2023-04-03T10:33:38.280Z,98910.00
2023-04-03T10:36:18.778Z,98906.00
2023-04-03T10:38:56.441Z,98906.00
2023-04-03T10:41:36.193Z,98905.00
2023-04-03T10:44:15.012Z,98897.00
2023-04-03T10:46:49.566Z,98902.00
2023-04-03T10:49:29.629Z,98894.00
2023-04-03T10:52:06.067Z,98897.00
2023-04-03T10:54:39.977Z,98888.00
2023-04-03T10:57:13.184Z,98882.00
2023-04-03T10:59:47.099Z,98882.00
2023-04-03T11:02:24.034Z,98886.00
2023-04-03T11:04:58.289Z,98886.00
2023-04-03T11:07:28.910Z,98882.00
2023-04-03T11:10:02.348Z,98884.00
2023-04-03T11:12:38.453Z,98873.00
2023-04-03T11:15:07.738Z,98874.00
2023-04-03T11:17:41.259Z,98867.00
2023-04-03T11:20:17.535Z,98873.00
2023-04-03T11:22:49.175Z,98859.00
2023-04-03T11:25:22.779Z,98863.00
2023-04-03T11:27:55.838Z,98863.00
2023-04-03T11:30:30.059Z,98864.00
2023-04-03T11:33:33.692Z,98859.00
2023-04-03T11:36:19.011Z,98870.00
2023-04-03T11:38:57.605Z,98859.00
2023-04-03T11:41:28.541Z,98856.00
2023-04-03T11:44:01.808Z,98860.00
2023-04-03T11:46:57.010Z,98861.00
2023-04-03T11:49:54.516Z,98847.00
2023-04-03T11:52:55.851Z,98851.00
2023-04-03T11:55:59.246Z,98846.00
2023-04-03T11:58:28.272Z,98848.00
2023-04-03T12:01:02.388Z,98845.00
2023-04-03T12:04:07.313Z,98839.00
2023-04-03T12:07:19.945Z,98837.00
2023-04-03T12:10:31.011Z,98834.00
2023-04-03T12:13:05.006Z,98829.00
2023-04-03T12:15:54.904Z,98821.00
2023-04-03T12:19:01.255Z,98814.00
2023-04-03T12:22:08.619Z,98814.00
2023-04-03T12:24:37.358Z,98810.00
2023-04-03T12:27:19.766Z,98810.00
2023-04-03T12:29:54.966Z,98811.00
2023-04-03T12:32:37.405Z,98804.00
2023-04-03T12:35:17.378Z,98801.00
2023-04-03T12:38:19.540Z,98798.00
2023-04-03T12:40:53.374Z,98799.00
2023-04-03T12:43:42.315Z,98788.00
2023-04-03T12:46:17.903Z,98791.00
2023-04-03T12:48:52.030Z,98787.00
2023-04-03T12:51:23.351Z,98798.00
2023-04-03T12:53:53.889Z,98788.00
2023-04-03T12:56:26.233Z,98792.00
2023-04-03T12:58:55.490Z,98786.00
2023-04-03T13:01:25.926Z,98787.00
2023-04-03T13:03:56.211Z,98781.00
2023-04-03T13:06:26.636Z,98767.00
2023-04-03T13:08:58.046Z,98780.00
2023-04-03T13:11:27.330Z,98794.00
2023-04-03T13:14:00.664Z,98786.00
2023-04-03T13:16:30.002Z,98775.00
2023-04-03T13:18:58.713Z,98795.00
2023-04-03T13:21:29.221Z,98782.00
2023-04-03T13:24:13.823Z,98774.00
2023-04-03T13:26:44.050Z,98774.00
2023-04-03T13:29:31.072Z,98780.00
2023-04-03T13:32:02.375Z,98770.00
2023-04-03T13:34:32.658Z,98769.00
2023-04-03T13:37:04.237Z,98768.00
2023-04-03T13:39:34.256Z,98765.00
2023-04-03T13:42:16.567Z,98761.00
2023-04-03T13:44:44.522Z,98767.00
2023-04-03T13:47:23.148Z,98770.00
2023-04-03T13:50:04.196Z,98772.00
2023-04-03T13:52:37.246Z,98770.00
2023-04-03T13:55:24.335Z,98762.00
2023-04-03T13:57:59.102Z,98767.00
2023-04-03T14:00:35.019Z,98756.00
2023-04-03T14:03:04.184Z,98768.00
2023-04-03T14:05:31.899Z,98761.00
2023-04-03T14:08:00.051Z,98761.00
2023-04-03T14:10:27.780Z,98744.00
2023-04-03T14:12:56.499Z,98764.00
2023-04-03T14:15:26.367Z,98759.00
2023-04-03T14:17:54.186Z,98755.00
2023-04-03T14:20:26.166Z,98754.00
2023-04-03T14:22:54.718Z,98758.00
2023-04-03T14:25:24.640Z,98750.00
2023-04-03T14:27:54.686Z,98754.00
2023-04-03T14:30:26.190Z,98748.00
2023-04-03T14:32:54.327Z,98744.00
2023-04-03T14:35:23.560Z,98748.00
2023-04-03T14:37:53.198Z,98749.00
2023-04-03T14:40:24.520Z,98748.00
2023-04-03T14:42:52.494Z,98750.00
2023-04-03T14:45:20.567Z,98746.00
2023-04-03T14:47:50.594Z,98744.00
2023-04-03T14:50:22.008Z,98751.00
2023-04-03T14:52:52.644Z,98757.00
2023-04-03T14:55:22.718Z,98737.00
2023-04-03T14:57:50.818Z,98738.00
2023-04-03T15:00:20.476Z,98727.00
2023-04-03T15:02:49.535Z,98737.00
2023-04-03T15:05:17.930Z,98740.00
2023-04-03T15:07:49.839Z,98724.00
2023-04-03T15:10:21.644Z,98731.00
2023-04-03T15:12:50.730Z,98730.00
2023-04-03T15:15:20.856Z,98730.00
2023-04-03T15:17:54.770Z,98731.00
2023-04-03T15:20:24.740Z,98734.00
2023-04-03T15:22:53.048Z,98739.00
2023-04-03T15:25:22.085Z,98745.00
2023-04-03T15:27:49.909Z,98737.00
2023-04-03T15:30:20.359Z,98739.00
2023-04-03T15:32:48.330Z,98739.00
2023-04-03T15:35:16.505Z,98746.00
2023-04-03T15:37:44.283Z,98753.00
2023-04-03T15:40:13.074Z,98749.00
2023-04-03T15:42:42.391Z,98749.00
2023-04-03T15:45:11.222Z,98755.00
2023-04-03T15:47:39.420Z,98757.00
2023-04-03T15:50:09.039Z,98758.00
2023-04-03T15:52:37.094Z,98753.00
2023-04-03T15:55:05.065Z,98756.00
2023-04-03T16:00:11.348Z,98750.00
2023-04-03T16:02:39.204Z,98754.00
2023-04-03T16:05:08.040Z,98746.00
2023-04-03T16:07:35.735Z,98745.00
2023-04-03T16:10:03.473Z,98755.00
2023-04-03T16:12:31.123Z,98757.00
2023-04-03T16:14:58.807Z,98753.00
2023-04-03T16:17:28.288Z,98763.00
2023-04-03T16:19:56.932Z,98762.00
2023-04-03T16:22:26.939Z,98755.00
2023-04-03T16:24:54.931Z,98759.00
2023-04-03T16:27:23.023Z,98766.00
2023-04-03T16:29:50.816Z,98767.00
2023-04-03T16:32:18.572Z,98761.00
2023-04-03T16:34:47.689Z,98775.00
2023-04-03T16:37:15.590Z,98773.00
2023-04-03T16:39:43.374Z,98776.00
2023-04-03T16:42:11.201Z,98777.00
2023-04-03T16:44:40.679Z,98770.00
2023-04-03T16:47:11.410Z,98781.00
2023-04-03T16:49:39.807Z,98779.00
2023-04-03T16:52:09.009Z,98783.00
2023-04-03T16:54:36.701Z,98780.00
2023-04-03T16:57:04.513Z,98777.00
2023-04-03T16:59:32.242Z,98784.00
2023-04-03T17:02:00.062Z,98788.00
2023-04-03T17:04:28.237Z,98794.00
2023-04-03T17:06:56.661Z,98788.00
2023-04-03T17:09:25.875Z,98793.00
2023-04-03T17:11:54.375Z,98794.00
2023-04-03T17:14:22.042Z,98801.00
2023-04-03T17:16:49.980Z,98798.00
2023-04-03T17:19:18.009Z,98800.00
2023-04-03T17:21:46.664Z,98810.00
2023-04-03T17:24:15.321Z,98805.00
2023-04-03T17:26:44.448Z,98810.00
2023-04-03T17:29:12.165Z,98809.00
2023-04-03T17:31:39.922Z,98809.00
2023-04-03T17:34:07.684Z,98807.00
2023-04-03T17:36:36.472Z,98824.00
2023-04-03T17:39:04.592Z,98822.00
2023-04-03T17:41:32.381Z,98822.00
2023-04-03T17:44:01.432Z,98824.00
2023-04-03T17:46:30.289Z,98822.00
2023-04-03T17:49:00.552Z,98826.00
2023-04-03T17:51:28.936Z,98820.00
2023-04-03T17:53:56.680Z,98827.00
2023-04-03T17:56:27.113Z,98828.00
2023-04-03T17:58:56.571Z,98827.00
2023-04-03T18:01:27.595Z,98830.00
2023-04-03T18:03:58.091Z,98834.00
2023-04-03T18:06:29.499Z,98842.00
2023-04-03T18:09:02.717Z,98840.00
2023-04-03T18:11:31.475Z,98839.00
2023-04-03T18:14:02.514Z,98837.00
2023-04-03T18:16:32.006Z,98845.00
2023-04-03T18:19:17.674Z,98848.00
2023-04-03T18:21:48.050Z,98849.00
2023-04-03T18:24:17.874Z,98848.00
2023-04-03T18:26:49.086Z,98858.00
2023-04-03T18:29:17.163Z,98858.00
2023-04-03T18:31:51.370Z,98860.00
2023-04-03T18:34:19.071Z,98857.00
2023-04-03T18:36:47.665Z,98859.00
2023-04-03T18:39:15.581Z,98856.00
2023-04-03T18:41:43.850Z,98864.00
2023-04-03T18:44:15.663Z,98863.00
2023-04-03T18:46:43.573Z,98873.00
2023-04-03T18:49:14.956Z,98867.00
2023-04-03T18:51:42.767Z,98863.00
2023-04-03T18:54:10.545Z,98870.00
2023-04-03T18:56:38.470Z,98866.00
2023-04-03T18:59:06.207Z,98867.00
2023-04-03T19:01:35.029Z,98873.00
2023-04-03T19:04:03.110Z,98878.00
2023-04-03T19:06:33.576Z,98874.00
2023-04-03T19:09:01.503Z,98877.00
2023-04-03T19:11:30.512Z,98883.00
2023-04-03T19:14:14.399Z,98885.00
2023-04-03T19:16:43.913Z,98886.00
2023-04-03T19:19:11.622Z,98887.00
2023-04-03T19:21:41.971Z,98889.00
2023-04-03T19:24:10.572Z,98889.00
2023-04-03T19:26:38.503Z,98883.00
2023-04-03T19:29:06.576Z,98891.00
2023-04-03T19:31:35.068Z,98883.00
2023-04-03T19:34:03.929Z,98889.00
2023-04-03T19:36:32.279Z,98895.00
2023-04-03T19:39:01.281Z,98885.00
2023-04-03T19:41:32.248Z,98889.00
2023-04-03T19:43:59.908Z,98896.00
2023-04-03T19:46:29.684Z,98895.00
2023-04-03T19:48:58.132Z,98895.00
2023-04-03T19:51:25.854Z,98896.00
2023-04-03T19:53:54.326Z,98902.00
2023-04-03T19:56:23.591Z,98901.00
2023-04-03T19:58:54.024Z,98899.00
2023-04-03T20:01:22.673Z,98898.00
2023-04-03T20:03:50.441Z,98907.00
2023-04-03T20:06:18.544Z,98908.00
2023-04-03T20:08:46.300Z,98910.00
2023-04-03T20:11:14.353Z,98910.00
2023-04-03T20:13:43.368Z,98908.00
2023-04-03T20:16:11.207Z,98913.00
2023-04-03T20:18:40.375Z,98911.00
2023-04-03T20:21:08.818Z,98912.00
2023-04-03T20:23:38.538Z,98917.00
2023-04-03T20:26:11.649Z,98915.00
2023-04-03T20:28:44.825Z,98912.00
2023-04-03T20:31:13.685Z,98918.00
2023-04-03T20:33:41.419Z,98917.00
2023-04-03T20:36:09.199Z,98907.00
2023-04-03T20:38:39.806Z,98917.00
2023-04-03T20:41:07.727Z,98912.00
2023-04-03T20:43:35.890Z,98913.00
2023-04-03T20:46:05.435Z,98915.00
2023-04-03T20:48:33.114Z,98907.00
2023-04-03T20:51:09.782Z,98917.00
2023-04-03T20:53:37.462Z,98915.00
2023-04-03T20:56:05.564Z,98908.00
2023-04-03T20:58:34.337Z,98916.00
2023-04-03T21:01:02.126Z,98912.00
2023-04-03T21:03:31.722Z,98913.00
2023-04-03T21:06:00.783Z,98911.00
2023-04-03T21:09:06.064Z,98917.00
2023-04-03T21:12:11.897Z,98911.00
2023-04-03T21:15:16.938Z,98907.00
2023-04-03T21:18:06.241Z,98907.00
2023-04-03T21:20:34.038Z,98922.00
2023-04-03T21:23:01.738Z,98911.00
2023-04-03T21:25:29.739Z,98908.00
2023-04-03T21:27:57.496Z,98921.00
2023-04-03T21:30:25.747Z,98915.00
2023-04-03T21:32:54.775Z,98914.00
2023-04-03T21:35:22.641Z,98912.00
2023-04-03T21:37:50.270Z,98919.00
2023-04-03T21:40:18.723Z,98920.00
2023-04-03T21:42:46.326Z,98917.00
2023-04-03T21:45:16.061Z,98920.00
2023-04-03T21:47:44.055Z,98914.00
2023-04-03T21:50:13.650Z,98912.00
2023-04-03T21:52:41.251Z,98910.00
2023-04-03T21:55:10.168Z,98916.00
2023-04-03T21:57:38.059Z,98901.00
2023-04-03T22:00:07.447Z,98914.00
2023-04-03T22:02:36.229Z,98911.00
2023-04-03T22:05:03.957Z,98913.00
2023-04-03T22:07:32.990Z,98910.00
2023-04-03T22:10:00.612Z,98911.00
2023-04-03T22:12:29.445Z,98911.00
2023-04-03T22:14:57.391Z,98917.00
2023-04-03T22:17:25.091Z,98919.00
2023-04-03T22:19:52.762Z,98916.00
2023-04-03T22:22:20.750Z,98911.00
2023-04-03T22:24:49.712Z,98910.00
2023-04-03T22:27:17.786Z,98921.00
2023-04-03T22:29:45.429Z,98912.00
2023-04-03T22:32:13.015Z,98913.00
2023-04-03T22:34:41.166Z,98909.00
2023-04-03T22:37:08.871Z,98918.00
2023-04-03T22:39:36.475Z,98906.00
2023-04-03T22:42:07.396Z,98907.00
2023-04-03T22:44:36.736Z,98915.00
2023-04-03T22:47:04.473Z,98911.00
2023-04-03T22:49:32.160Z,98909.00
2023-04-03T22:51:59.859Z,98910.00
2023-04-03T22:54:27.436Z,98898.00
2023-04-03T22:56:55.596Z,98901.00
2023-04-03T22:59:24.856Z,98904.00
2023-04-03T23:01:52.498Z,98901.00
2023-04-03T23:04:20.238Z,98897.00
2023-04-03T23:06:47.900Z,98908.00
2023-04-03T23:09:15.513Z,98906.00
2023-04-03T23:11:43.573Z,98897.00
2023-04-03T23:14:11.326Z,98900.00
2023-04-03T23:16:42.107Z,98895.00
2023-04-03T23:19:09.744Z,98890.00
2023-04-03T23:21:37.738Z,98888.00
2023-04-03T23:24:05.439Z,98896.00
2023-04-03T23:26:33.019Z,98892.00
2023-04-03T23:29:00.660Z,98898.00
2023-04-03T23:31:28.325Z,98893.00
2023-04-03T23:33:57.247Z,98897.00
2023-04-03T23:36:24.928Z,98896.00
2023-04-03T23:38:56.503Z,98895.00
2023-04-03T23:41:24.868Z,98894.00
2023-04-03T23:43:52.595Z,98891.00
2023-04-03T23:46:20.554Z,98894.00
2023-04-03T23:48:48.266Z,98890.00
2023-04-03T23:51:17.419Z,98891.00
2023-04-03T23:53:45.012Z,98886.00
2023-04-03T23:56:13.224Z,98878.00
2023-04-03T23:58:40.929Z,98880.00
